Time;durP1;ratioP1;P1;durP2;ratioP2;P2;SDS_P1;SDS_P2;PMS_P1;PMS_P2;Temp;Humidity;BMP_temperature;BMP_pressure;BME280_temperature;BME280_humidity;BME280_pressure;Samples;Min_cycle;Max_cycle;Signal;HPM_P1;HPM_P2
2022/03/27 00:00:05;;;;;;;19.25;15.32;;;;;;;7.10;82.91;102267.56;677910;28;1471;-76
2022/03/27 00:00:34;;;;;;;20.27;16.02;;;;;;;6.95;85.34;102263.59;678059;29;1011;-76
2022/03/27 00:00:55;;;;;;;20.98;15.65;;;;;;;6.85;85.54;102281.41;681741;28;4333;-76
2022/03/27 00:01:18;;;;;;;20.75;15.88;;;;;;;6.76;86.15;102259.44;681232;28;1570;-75
2022/03/27 00:01:49;;;;;;;21.38;16.10;;;;;;;6.71;84.79;102263.56;683372;28;1935;-76
2022/03/27 00:02:14;;;;;;;20.65;15.55;;;;;;;6.76;85.10;102289.75;682815;28;1752;-76
2022/03/27 00:02:52;;;;;;;20.20;15.68;;;;;;;6.70;85.10;102277.41;682481;28;1709;-76
2022/03/27 00:03:13;;;;;;;21.00;16.20;;;;;;;6.69;87.47;102290.34;687297;28;1597;-76
2022/03/27 00:03:37;;;;;;;20.17;16.17;;;;;;;6.63;86.98;102291.91;681736;28;1375;-76
2022/03/27 00:04:01;;;;;;;20.60;15.85;;;;;;;6.72;85.00;102254.97;672595;28;4337;-76
2022/03/27 00:04:39;;;;;;;20.45;15.80;;;;;;;6.68;86.90;102263.47;679224;28;1288;-76
2022/03/27 00:05:03;;;;;;;21.17;16.65;;;;;;;6.57;88.18;102277.78;684452;28;2459;-77
2022/03/27 00:05:27;;;;;;;20.10;16.15;;;;;;;6.52;87.65;102253.34;687883;28;1721;-76
2022/03/27 00:05:48;;;;;;;19.63;15.43;;;;;;;6.64;85.27;102261.59;682454;28;1546;-77
2022/03/27 00:06:09;;;;;;;20.70;15.73;;;;;;;6.58;87.09;102308.16;682829;28;1536;-76
2022/03/27 00:06:43;;;;;;;21.00;16.20;;;;;;;6.47;88.80;102298.22;682145;28;1342;-76
2022/03/27 00:07:04;;;;;;;20.73;15.77;;;;;;;6.51;87.03;102285.31;680933;28;4514;-76
2022/03/27 00:07:41;;;;;;;19.63;15.70;;;;;;;6.54;86.82;102307.13;673836;29;1340;-77
2022/03/27 00:08:02;;;;;;;21.33;15.90;;;;;;;6.64;85.59;102303.16;680430;28;1293;-76
2022/03/27 00:08:28;;;;;;;22.23;15.82;;;;;;;6.79;84.40;102259.53;682723;28;2150;-76
2022/03/27 00:08:49;;;;;;;20.20;15.48;;;;;;;7.04;81.35;102317.63;685050;28;1519;-76
2022/03/27 00:09:13;;;;;;;18.85;15.18;;;;;;;6.97;83.08;102300.03;687232;28;1319;-76
2022/03/27 00:09:37;;;;;;;18.80;15.15;;;;;;;6.99;83.47;102300.97;686152;28;1467;-76
2022/03/27 00:09:58;;;;;;;18.98;15.45;;;;;;;6.91;85.55;102292.91;683234;28;4372;-76
2022/03/27 00:10:24;;;;;;;20.35;16.13;;;;;;;6.79;86.78;102271.66;683788;28;1283;-76
2022/03/27 00:11:36;;;;;;;21.77;16.60;;;;;;;6.56;87.18;102289.91;684536;28;1626;-76
2022/03/27 00:11:57;;;;;;;19.30;15.65;;;;;;;6.63;84.71;102265.00;681794;28;1327;-76
2022/03/27 00:12:18;;;;;;;20.23;15.20;;;;;;;6.81;83.21;102290.78;681920;28;1424;-76
2022/03/27 00:12:39;;;;;;;19.13;14.88;;;;;;;6.91;83.87;102277.31;679890;28;1223;-76
2022/03/27 00:13:08;;;;;;;20.10;15.55;;;;;;;6.83;86.72;102265.75;681547;28;4476;-76
2022/03/27 00:13:37;;;;;;;20.63;16.33;;;;;;;6.71;86.91;102268.78;679246;28;1578;-76
2022/03/27 00:14:04;;;;;;;20.40;15.85;;;;;;;6.74;85.10;102289.69;683200;28;1360;-75
2022/03/27 00:14:25;;;;;;;20.95;15.50;;;;;;;6.90;84.41;102267.72;677965;29;1394;-76
2022/03/27 00:14:45;;;;;;;21.80;15.68;;;;;;;6.82;86.22;102272.63;678818;29;1543;-75
2022/03/27 00:15:09;;;;;;;20.87;15.87;;;;;;;6.69;86.68;102290.34;680030;28;1835;-76
2022/03/27 00:15:36;;;;;;;21.85;16.27;;;;;;;6.51;86.94;102291.44;681389;28;1415;-76
2022/03/27 00:16:00;;;;;;;22.58;16.02;;;;;;;6.48;87.04;102270.53;678360;28;4322;-76
2022/03/27 00:16:29;;;;;;;21.70;16.15;;;;;;;6.49;87.22;102282.69;678692;28;1566;-76
2022/03/27 00:16:52;;;;;;;19.90;15.60;;;;;;;6.53;86.22;102266.38;680369;28;1344;-75
2022/03/27 00:17:18;;;;;;;20.63;15.70;;;;;;;6.57;86.97;102269.97;680233;28;1407;-76
2022/03/27 00:17:39;;;;;;;23.00;16.50;;;;;;;6.45;88.31;102278.19;683728;28;1119;-74
2022/03/27 00:18:21;;;;;;;20.02;15.95;;;;;;;6.46;87.30;102303.34;688091;28;2173;-75
2022/03/27 00:18:45;;;;;;;21.27;16.58;;;;;;;6.38;88.90;102264.06;687599;28;1473;-77
2022/03/27 00:19:06;;;;;;;22.05;16.35;;;;;;;6.41;86.38;102282.41;686824;28;4311;-76
2022/03/27 00:19:39;;;;;;;20.08;15.50;;;;;;;6.57;85.25;102288.19;685208;28;2117;-76
2022/03/27 00:20:04;;;;;;;19.95;16.15;;;;;;;6.53;88.11;102284.56;679653;28;1299;-75
2022/03/27 00:20:25;;;;;;;22.42;16.92;;;;;;;6.45;88.70;102298.97;680918;28;4084;-76
2022/03/27 00:20:46;;;;;;;21.80;16.38;;;;;;;6.42;86.15;102265.97;682353;28;1748;-75
2022/03/27 00:21:11;;;;;;;19.40;15.40;;;;;;;6.60;85.25;102290.88;683006;28;1658;-76
2022/03/27 00:21:32;;;;;;;18.83;14.80;;;;;;;6.85;82.62;102273.59;682571;28;1534;-76
2022/03/27 00:21:56;;;;;;;19.90;15.60;;;;;;;6.85;84.78;102278.81;680278;28;1895;-76
2022/03/27 00:22:20;;;;;;;21.20;15.82;;;;;;;6.67;86.76;102272.09;669241;28;4904;-76
2022/03/27 00:22:44;;;;;;;20.38;16.10;;;;;;;6.58;87.73;102277.84;681740;28;1386;-75
2022/03/27 00:23:05;;;;;;;20.88;16.20;;;;;;;6.55;85.44;102306.31;682476;28;1315;-76
2022/03/27 00:23:26;;;;;;;19.10;15.30;;;;;;;6.64;84.50;102275.44;683031;28;2709;-76
2022/03/27 00:24:00;;;;;;;19.88;15.55;;;;;;;6.65;86.83;102302.34;683737;28;995;-76
2022/03/27 00:24:21;;;;;;;20.80;15.70;;;;;;;6.52;87.60;102264.63;679792;28;1356;-76
2022/03/27 00:24:49;;;;;;;22.55;16.15;;;;;;;6.58;86.12;102272.63;684593;28;1259;-76
2022/03/27 00:25:13;;;;;;;19.23;14.85;;;;;;;6.70;85.40;102282.63;674447;28;4361;-78
2022/03/27 00:25:40;;;;;;;21.25;15.73;;;;;;;6.55;86.83;102311.50;684245;28;1395;-76
2022/03/27 00:26:01;;;;;;;20.05;16.17;;;;;;;6.45;87.11;102268.69;681018;28;1651;-77
2022/03/27 00:26:22;;;;;;;21.38;16.25;;;;;;;6.37;88.56;102271.81;675181;29;1512;-76
2022/03/27 00:26:44;;;;;;;20.27;15.95;;;;;;;6.34;86.80;102293.38;675087;29;1059;-77
2022/03/27 00:27:05;;;;;;;19.63;15.38;;;;;;;6.40;87.60;102291.00;675830;29;1359;-76
2022/03/27 00:27:26;;;;;;;20.15;15.85;;;;;;;6.32;88.71;102309.72;677478;29;2058;-75
2022/03/27 00:27:57;;;;;;;20.65;16.17;;;;;;;6.22;90.08;102303.28;675676;29;1376;-76
2022/03/27 00:28:18;;;;;;;21.70;16.15;;;;;;;6.25;88.25;102293.03;667261;29;4727;-76
2022/03/27 00:28:40;;;;;;;19.98;15.50;;;;;;;6.29;87.98;102300.09;677169;29;1315;-76
2022/03/27 00:29:15;;;;;;;20.75;15.98;;;;;;;6.25;89.49;102272.25;675961;29;1295;-76
2022/03/27 00:29:36;;;;;;;22.58;15.88;;;;;;;6.17;90.61;102273.66;677725;29;1329;-76
2022/03/27 00:29:59;;;;;;;21.35;16.17;;;;;;;6.08;91.16;102267.28;677875;29;1169;-76
2022/03/27 00:30:26;;;;;;;22.52;16.70;;;;;;;6.04;92.00;102312.13;682711;28;1386;-76
2022/03/27 00:30:47;;;;;;;23.02;16.67;;;;;;;6.04;90.68;102274.88;682243;28;1713;-76
2022/03/27 00:31:12;;;;;;;22.50;16.08;;;;;;;6.03;91.24;102301.66;682076;28;4372;-76
2022/03/27 00:31:38;;;;;;;22.65;16.80;;;;;;;5.96;91.84;102290.13;682177;28;1753;-76
2022/03/27 00:31:59;;;;;;;21.90;16.90;;;;;;;5.94;90.44;102284.88;677385;28;1221;-76
2022/03/27 00:32:25;;;;;;;20.85;16.50;;;;;;;6.00;90.97;102266.09;679021;29;1542;-77
2022/03/27 00:32:49;;;;;;;20.65;16.27;;;;;;;6.00;91.85;102283.38;683059;28;1279;-76
2022/03/27 00:33:12;;;;;;;19.83;16.30;;;;;;;5.99;90.80;102279.88;684028;28;1493;-77
2022/03/27 00:33:37;;;;;;;19.50;15.48;;;;;;;6.14;89.32;102327.22;680367;28;2114;-76
2022/03/27 00:34:03;;;;;;;20.58;15.23;;;;;;;6.21;89.09;102296.31;678971;28;4416;-75
2022/03/27 00:34:27;;;;;;;20.17;15.40;;;;;;;6.29;88.82;102274.13;680553;29;1490;-76
2022/03/27 00:34:48;;;;;;;21.30;16.05;;;;;;;6.27;89.49;102266.28;680114;29;2245;-75
2022/03/27 00:35:15;;;;;;;21.30;16.20;;;;;;;6.29;88.68;102261.16;680532;29;1264;-76
2022/03/27 00:35:36;;;;;;;22.35;16.17;;;;;;;6.24;90.27;102273.94;681017;29;961;-76
2022/03/27 00:36:08;;;;;;;21.67;16.40;;;;;;;6.21;91.28;102317.09;679104;29;1432;-77
2022/03/27 00:36:35;;;;;;;22.90;16.52;;;;;;;6.12;90.48;102279.56;680706;29;1562;-76
2022/03/27 00:37:06;;;;;;;19.83;15.68;;;;;;;6.20;90.71;102290.22;682210;28;4308;-77
2022/03/27 00:37:30;;;;;;;18.88;14.93;;;;;;;6.14;90.94;102261.44;683057;28;1657;-76
2022/03/27 00:37:52;;;;;;;19.88;15.82;;;;;;;6.19;89.51;102283.28;680956;28;1301;-77
2022/03/27 00:38:12;;;;;;;20.65;15.75;;;;;;;6.12;90.92;102266.56;681995;28;2505;-76
2022/03/27 00:38:33;;;;;;;21.83;17.08;;;;;;;6.11;89.93;102300.28;679427;29;1557;-75
2022/03/27 00:39:04;;;;;;;20.05;16.05;;;;;;;6.17;90.45;102289.22;680754;29;4360;-76
2022/03/27 00:39:28;;;;;;;21.85;16.40;;;;;;;6.13;91.92;102268.34;679890;28;1672;-76
2022/03/27 00:39:51;;;;;;;20.60;15.95;;;;;;;6.17;89.33;102260.66;676748;29;1616;-76
2022/03/27 00:40:14;;;;;;;19.38;15.27;;;;;;;6.28;89.08;102269.75;679631;28;4334;-76
2022/03/27 00:40:35;;;;;;;20.42;15.38;;;;;;;6.32;88.48;102270.78;680243;28;1466;-76
2022/03/27 00:41:02;;;;;;;19.15;15.35;;;;;;;6.39;88.50;102273.66;677369;28;1800;-75
2022/03/27 00:41:24;;;;;;;19.77;15.32;;;;;;;6.35;89.06;102289.06;681590;28;1661;-76
2022/03/27 00:41:51;;;;;;;19.92;16.05;;;;;;;6.31;88.65;102288.06;684782;28;1908;-76
2022/03/27 00:42:15;;;;;;;22.80;16.02;;;;;;;6.33;88.53;102264.72;684779;28;1280;-76
2022/03/27 00:42:41;;;;;;;22.13;16.08;;;;;;;6.27;90.51;102274.09;683312;28;1190;-76
2022/03/27 00:43:02;;;;;;;20.45;16.23;;;;;;;6.18;91.98;102296.22;684756;28;4320;-76
2022/03/27 00:43:25;;;;;;;20.95;16.45;;;;;;;6.12;90.76;102260.50;684564;28;1330;-76
2022/03/27 00:43:49;;;;;;;19.60;16.08;;;;;;;6.17;90.44;102294.44;681464;28;1566;-76
2022/03/27 00:44:11;;;;;;;19.75;15.70;;;;;;;6.14;91.32;102258.84;683126;28;1494;-76
2022/03/27 00:44:38;;;;;;;19.17;15.43;;;;;;;6.19;90.23;102264.19;683371;28;1271;-77
2022/03/27 00:45:04;;;;;;;20.67;15.77;;;;;;;6.20;90.16;102263.38;690104;28;1545;-76
2022/03/27 00:45:24;;;;;;;20.17;16.13;;;;;;;6.23;90.34;102284.28;686541;28;1380;-75
2022/03/27 00:45:55;;;;;;;19.45;15.20;;;;;;;6.26;90.00;102284.41;686865;28;1547;-76
2022/03/27 00:46:16;;;;;;;22.75;16.40;;;;;;;6.17;91.56;102274.53;682808;28;4872;-76
2022/03/27 00:46:41;;;;;;;21.45;16.58;;;;;;;6.16;92.05;102266.69;677968;28;1461;-76
2022/03/27 00:47:06;;;;;;;20.42;16.10;;;;;;;6.20;90.31;102282.44;681282;28;1824;-78
2022/03/27 00:47:30;;;;;;;19.98;15.68;;;;;;;6.23;90.65;102279.06;683413;28;1437;-76
2022/03/27 00:47:53;;;;;;;19.92;15.88;;;;;;;6.17;91.79;102303.09;680674;28;1582;-77
2022/03/27 00:48:18;;;;;;;20.05;16.23;;;;;;;6.15;91.51;102265.81;682184;28;1965;-76
2022/03/27 00:48:39;;;;;;;20.27;15.80;;;;;;;6.22;91.25;102261.75;683600;28;1107;-76
2022/03/27 00:49:06;;;;;;;20.40;16.27;;;;;;;6.16;92.01;102310.81;684158;28;4317;-75
2022/03/27 00:49:28;;;;;;;20.85;16.02;;;;;;;6.07;92.81;102308.75;685500;28;1705;-75
2022/03/27 00:49:49;;;;;;;21.95;16.13;;;;;;;6.03;92.43;102296.47;682010;28;1574;-76
2022/03/27 00:50:16;;;;;;;21.25;15.77;;;;;;;6.11;90.81;102263.91;689246;28;1341;-76
2022/03/27 00:50:40;;;;;;;20.02;15.35;;;;;;;6.19;90.24;102274.59;684828;28;1044;-77
2022/03/27 00:51:04;;;;;;;17.92;14.88;;;;;;;6.20;89.62;102303.22;683338;28;2853;-75
2022/03/27 00:51:30;;;;;;;18.45;14.95;;;;;;;6.26;90.02;102289.59;682156;28;1707;-76
2022/03/27 00:51:54;;;;;;;20.33;15.18;;;;;;;6.25;90.12;102261.84;681817;28;1484;-76
2022/03/27 00:52:17;;;;;;;19.67;15.02;;;;;;;6.21;90.22;102263.44;677575;28;4680;-77
2022/03/27 00:52:40;;;;;;;20.63;15.55;;;;;;;6.23;90.57;102273.88;682250;28;1432;-76
2022/03/27 00:53:03;;;;;;;20.02;15.18;;;;;;;6.19;90.42;102259.00;685011;28;1410;-76
2022/03/27 00:53:27;;;;;;;18.23;14.93;;;;;;;6.26;89.87;102263.63;680324;28;2013;-77
2022/03/27 00:53:50;;;;;;;19.10;14.40;;;;;;;6.34;89.16;102259.63;685570;28;1585;-75
2022/03/27 00:54:14;;;;;;;17.88;14.18;;;;;;;6.29;90.80;102258.56;682819;28;1143;-76
2022/03/27 00:54:35;;;;;;;19.17;15.13;;;;;;;6.24;90.63;102265.28;686975;28;1387;-76
2022/03/27 00:54:57;;;;;;;18.80;15.00;;;;;;;6.26;90.02;102261.03;684176;28;4308;-76
2022/03/27 00:55:23;;;;;;;19.27;14.85;;;;;;;6.36;88.44;102290.84;684239;28;1595;-76
2022/03/27 00:55:48;;;;;;;19.25;15.07;;;;;;;6.38;88.38;102294.38;676285;29;1419;-76
2022/03/27 00:56:09;;;;;;;17.77;14.82;;;;;;;6.31;88.96;102282.84;676607;29;1710;-76
2022/03/27 00:56:33;;;;;;;18.77;14.95;;;;;;;6.31;88.98;102319.22;676454;29;1361;-75
2022/03/27 00:57:03;;;;;;;18.23;14.23;;;;;;;6.34;88.30;102257.03;680106;29;1137;-76
2022/03/27 00:57:30;;;;;;;17.77;14.48;;;;;;;6.28;90.20;102256.78;679123;28;1352;-75
2022/03/27 00:57:55;;;;;;;19.92;14.73;;;;;;;6.23;90.16;102269.59;679851;28;1366;-76
2022/03/27 00:58:23;;;;;;;20.27;15.25;;;;;;;6.20;91.20;102256.47;681290;28;4703;-76
2022/03/27 00:58:49;;;;;;;19.45;15.32;;;;;;;6.20;92.26;102294.53;684474;28;1402;-76
2022/03/27 00:59:10;;;;;;;18.63;14.85;;;;;;;6.13;91.56;102302.09;685016;28;1519;-76
2022/03/27 00:59:31;;;;;;;18.85;14.50;;;;;;;6.17;90.80;102289.22;682056;28;1550;-76
2022/03/27 00:59:52;;;;;;;18.95;14.57;;;;;;;6.13;90.84;102283.94;682301;28;1442;-76
2022/03/27 01:00:36;;;;;;;19.45;14.85;;;;;;;6.14;91.21;102261.44;685939;28;1515;-75
2022/03/27 01:01:24;;;;;;;19.10;14.93;;;;;;;6.13;90.45;102299.50;685775;28;4315;-76
2022/03/27 01:01:50;;;;;;;18.33;14.55;;;;;;;6.09;90.69;102276.84;682687;28;1987;-77
2022/03/27 01:02:12;;;;;;;20.15;15.43;;;;;;;6.11;90.07;102295.94;686134;28;1255;-76
2022/03/27 01:02:36;;;;;;;19.27;14.82;;;;;;;6.12;91.97;102289.94;684852;28;1943;-76
2022/03/27 01:03:00;;;;;;;19.55;15.27;;;;;;;6.10;91.95;102263.00;680627;28;1470;-76
2022/03/27 01:03:26;;;;;;;20.80;15.85;;;;;;;6.08;92.77;102269.88;679850;28;1267;-76
2022/03/27 01:03:53;;;;;;;19.52;15.10;;;;;;;6.06;92.63;102258.53;681187;28;1027;-76
2022/03/27 01:04:24;;;;;;;19.35;15.55;;;;;;;6.00;93.39;102285.97;678203;28;4305;-77
2022/03/27 01:05:08;;;;;;;19.73;15.40;;;;;;;5.98;93.93;102298.88;677722;28;1401;-76
2022/03/27 01:05:29;;;;;;;22.30;16.17;;;;;;;5.87;94.26;102290.63;680021;28;1318;-76
2022/03/27 01:05:57;;;;;;;21.60;15.40;;;;;;;5.86;94.22;102262.03;680907;29;1247;-76
2022/03/27 01:06:58;;;;;;;20.85;15.45;;;;;;;5.86;92.99;102256.84;680741;28;1384;-76
2022/03/27 01:07:25;;;;;;;20.17;14.77;;;;;;;5.90;91.96;102254.41;682200;28;5203;-76
2022/03/27 01:07:53;;;;;;;20.38;14.68;;;;;;;5.95;92.14;102252.00;683997;28;1564;-76
2022/03/27 01:09:35;;;;;;;18.05;14.40;;;;;;;5.91;93.73;102260.47;682772;28;1604;-76
2022/03/27 01:09:48;;;;;;;20.42;15.52;;;;;;;5.88;94.35;102263.84;684862;28;1878;-76
2022/03/27 01:10:09;;;;;;;18.83;15.00;;;;;;;5.89;93.48;102282.91;677891;28;4323;-75
2022/03/27 01:10:40;;;;;;;19.35;14.75;;;;;;;5.96;92.03;102254.66;673695;29;1488;-76
2022/03/27 01:11:12;;;;;;;19.77;15.05;;;;;;;5.90;94.25;102258.72;672456;29;1718;-76
2022/03/27 01:11:32;;;;;;;19.27;15.23;;;;;;;5.86;94.65;102254.25;677640;29;1539;-76
2022/03/27 01:11:54;;;;;;;19.97;14.93;;;;;;;5.84;94.12;102269.72;681240;29;1256;-76
2022/03/27 01:12:19;;;;;;;19.63;15.23;;;;;;;5.86;93.86;102256.84;680353;28;1239;-75
2022/03/27 01:12:48;;;;;;;20.45;15.60;;;;;;;5.81;94.11;102256.63;680153;28;2074;-76
2022/03/27 01:13:30;;;;;;;20.38;15.50;;;;;;;5.98;90.81;102267.72;678052;28;4379;-76
2022/03/27 01:13:58;;;;;;;18.52;13.85;;;;;;;6.11;89.72;102274.31;682105;28;923;-76
2022/03/27 01:14:36;;;;;;;18.73;14.02;;;;;;;6.11;90.92;102246.63;678246;28;963;-75
2022/03/27 01:14:59;;;;;;;20.05;15.25;;;;;;;6.04;93.10;102283.56;682900;28;1329;-76
2022/03/27 01:15:42;;;;;;;19.50;15.07;;;;;;;6.04;91.53;102260.19;677722;28;1645;-76
2022/03/27 01:16:16;;;;;;;18.38;14.02;;;;;;;6.07;90.81;102247.31;675250;29;4352;-76
2022/03/27 01:16:38;;;;;;;16.77;13.65;;;;;;;6.23;89.09;102248.81;676091;29;4313;-76
2022/03/27 01:17:08;;;;;;;17.35;13.88;;;;;;;6.25;90.01;102290.44;678776;29;1365;-76
2022/03/27 01:17:32;;;;;;;19.20;14.60;;;;;;;6.18;92.34;102254.66;678329;29;1792;-75
2022/03/27 01:17:53;;;;;;;18.48;14.40;;;;;;;6.22;89.24;102259.16;679503;28;1667;-76
2022/03/27 01:18:14;;;;;;;17.40;13.50;;;;;;;6.33;87.86;102251.75;683296;28;1185;-76
2022/03/27 01:18:39;;;;;;;17.83;14.23;;;;;;;6.33;87.83;102243.94;680371;28;1511;-76
2022/03/27 01:19:07;;;;;;;18.00;13.85;;;;;;;6.42;87.98;102267.69;677975;29;4465;-76
2022/03/27 01:19:28;;;;;;;18.73;14.52;;;;;;;6.32;90.74;102240.47;677446;29;958;-76
2022/03/27 01:19:52;;;;;;;19.25;14.40;;;;;;;6.26;91.83;102248.06;680658;29;1299;-76
2022/03/27 01:20:27;;;;;;;19.70;14.60;;;;;;;6.23;91.81;102246.22;680297;28;1448;-76
2022/03/27 01:20:48;;;;;;;18.92;14.60;;;;;;;6.15;92.85;102252.81;679770;29;1713;-76
2022/03/27 01:21:09;;;;;;;19.27;15.17;;;;;;;6.08;91.76;102254.28;680044;29;1379;-76
2022/03/27 01:21:41;;;;;;;18.45;14.45;;;;;;;6.18;90.32;102236.47;678105;29;1709;-76
2022/03/27 01:22:05;;;;;;;18.63;13.68;;;;;;;6.40;88.15;102292.75;677776;28;4332;-76
2022/03/27 01:22:28;;;;;;;17.88;13.52;;;;;;;6.36;89.38;102239.78;680199;28;1786;-75
2022/03/27 01:22:56;;;;;;;17.38;13.90;;;;;;;6.26;89.79;102261.91;682776;28;1509;-76
2022/03/27 01:23:27;;;;;;;19.83;14.88;;;;;;;6.23;92.25;102254.00;682483;28;1264;-76
2022/03/27 01:23:47;;;;;;;18.13;14.30;;;;;;;6.17;93.50;102250.28;680239;29;1393;-76
2022/03/27 01:24:09;;;;;;;18.63;14.25;;;;;;;6.10;93.39;102241.38;682443;28;1810;-76
2022/03/27 01:24:30;;;;;;;18.42;14.48;;;;;;;6.08;91.33;102251.69;680686;28;1400;-75
2022/03/27 01:24:51;;;;;;;19.10;14.63;;;;;;;6.09;92.08;102257.75;675976;29;1478;-76
2022/03/27 01:25:12;;;;;;;18.92;14.43;;;;;;;6.03;93.14;102261.00;672391;29;4386;-77
2022/03/27 01:25:33;;;;;;;18.30;14.07;;;;;;;6.04;93.04;102236.81;674081;29;1539;-76
2022/03/27 01:25:54;;;;;;;16.98;13.90;;;;;;;6.05;91.46;102245.47;675252;29;925;-75
2022/03/27 01:26:15;;;;;;;18.15;13.98;;;;;;;6.03;92.77;102229.84;675263;29;1400;-76
2022/03/27 01:26:39;;;;;;;18.50;14.30;;;;;;;5.97;92.40;102248.66;677411;28;1365;-76
2022/03/27 01:27:04;;;;;;;18.52;13.93;;;;;;;6.10;90.45;102267.31;681553;28;1294;-76
2022/03/27 01:27:24;;;;;;;17.33;13.32;;;;;;;6.08;92.10;102230.94;682797;28;1925;-76
2022/03/27 01:27:45;;;;;;;19.03;13.53;;;;;;;6.11;90.06;102269.97;681402;28;1088;-76
2022/03/27 01:28:10;;;;;;;17.85;13.65;;;;;;;6.12;92.40;102245.78;679643;28;4320;-76
2022/03/27 01:28:31;;;;;;;19.23;14.38;;;;;;;6.08;92.83;102233.53;683371;28;1721;-76
2022/03/27 01:28:51;;;;;;;18.20;14.23;;;;;;;6.04;93.34;102262.78;684299;28;1981;-76
2022/03/27 01:29:12;;;;;;;18.45;14.38;;;;;;;6.01;94.16;102247.09;685599;28;1176;-76
2022/03/27 01:29:34;;;;;;;19.60;14.23;;;;;;;5.99;91.99;102230.56;686407;28;1564;-76
2022/03/27 01:30:03;;;;;;;18.13;13.52;;;;;;;6.16;88.99;102222.53;683678;28;1322;-77
2022/03/27 01:30:24;;;;;;;19.17;13.80;;;;;;;6.29;87.23;102238.66;682678;28;1576;-76
2022/03/27 01:30:45;;;;;;;17.70;13.53;;;;;;;6.45;87.42;102236.63;683376;28;1444;-76
2022/03/27 01:31:07;;;;;;;18.50;13.60;;;;;;;6.37;90.52;102275.31;681294;28;4389;-76
2022/03/27 01:31:27;;;;;;;18.70;13.85;;;;;;;6.31;90.97;102225.72;679774;29;1800;-76
2022/03/27 01:31:53;;;;;;;18.17;14.30;;;;;;;6.23;91.98;102229.72;682774;28;2229;-78
2022/03/27 01:32:21;;;;;;;19.80;14.57;;;;;;;6.16;93.58;102258.88;682078;28;1373;-75
2022/03/27 01:32:42;;;;;;;18.63;14.38;;;;;;;6.16;90.62;102225.13;687856;28;1317;-75
2022/03/27 01:33:05;;;;;;;19.00;14.23;;;;;;;6.19;89.18;102246.03;684921;28;989;-76
2022/03/27 01:33:25;;;;;;;18.52;13.88;;;;;;;6.35;87.60;102248.38;685468;28;1080;-76
2022/03/27 01:33:46;;;;;;;18.45;13.07;;;;;;;6.44;85.90;102224.47;684021;28;1223;-75
2022/03/27 01:34:06;;;;;;;17.93;13.10;;;;;;;6.56;85.43;102226.63;685358;28;4652;-77
2022/03/27 01:34:27;;;;;;;17.08;13.30;;;;;;;6.61;85.38;102225.09;682289;28;1283;-76
2022/03/27 01:34:57;;;;;;;16.95;13.30;;;;;;;6.62;85.48;102258.06;682934;28;1462;-76
2022/03/27 01:35:19;;;;;;;17.05;13.00;;;;;;;6.55;88.71;102230.97;684023;28;1555;-75
2022/03/27 01:35:40;;;;;;;17.38;13.52;;;;;;;6.53;88.36;102232.59;683687;28;1306;-75
2022/03/27 01:36:00;;;;;;;19.00;14.13;;;;;;;6.45;89.88;102250.50;687440;28;1723;-76
2022/03/27 01:36:29;;;;;;;19.05;13.90;;;;;;;6.35;91.68;102219.81;686076;28;1282;-76
2022/03/27 01:36:49;;;;;;;17.42;13.30;;;;;;;6.33;89.86;102259.53;687178;28;1392;-76
2022/03/27 01:37:20;;;;;;;18.50;13.13;;;;;;;6.29;90.85;102224.78;685501;28;4295;-76
2022/03/27 01:37:41;;;;;;;16.52;13.43;;;;;;;6.26;91.01;102228.16;687009;28;1413;-76
2022/03/27 01:38:11;;;;;;;16.85;13.70;;;;;;;6.22;91.15;102220.19;685088;28;2109;-76
2022/03/27 01:38:31;;;;;;;17.50;13.73;;;;;;;6.17;91.54;102268.47;684249;28;1456;-76
2022/03/27 01:38:54;;;;;;;17.67;13.85;;;;;;;6.11;92.04;102222.38;684913;28;896;-76
2022/03/27 01:39:16;;;;;;;18.05;13.90;;;;;;;6.05;93.49;102279.22;685219;28;1281;-76
2022/03/27 01:39:38;;;;;;;19.00;14.10;;;;;;;5.94;94.73;102258.00;683973;28;1431;-76
2022/03/27 01:39:58;;;;;;;18.60;14.30;;;;;;;5.91;93.67;102224.13;681168;28;4426;-75
2022/03/27 01:40:19;;;;;;;17.98;13.90;;;;;;;5.99;92.94;102220.16;685580;28;1276;-76
2022/03/27 01:40:43;;;;;;;18.67;13.57;;;;;;;6.14;90.25;102217.28;683514;28;1693;-77
2022/03/27 01:41:05;;;;;;;16.30;13.13;;;;;;;6.31;87.99;102220.53;682935;28;1427;-76
2022/03/27 01:41:26;;;;;;;17.25;13.85;;;;;;;6.26;91.67;102217.75;674979;28;2300;-76
2022/03/27 01:41:46;;;;;;;17.83;13.90;;;;;;;6.22;92.52;102215.88;675479;29;1115;-75
2022/03/27 01:42:08;;;;;;;20.33;14.30;;;;;;;6.17;92.14;102216.53;677919;29;1958;-76
2022/03/27 01:42:28;;;;;;;19.08;13.40;;;;;;;6.21;90.33;102218.41;680524;28;1510;-76
2022/03/27 01:42:52;;;;;;;15.90;12.43;;;;;;;6.35;89.01;102218.94;680780;28;990;-75
2022/03/27 01:43:13;;;;;;;18.13;13.43;;;;;;;6.30;91.84;102218.78;683494;28;4273;-75
2022/03/27 01:43:34;;;;;;;18.58;13.88;;;;;;;6.23;91.28;102217.66;683819;28;1223;-78
2022/03/27 01:43:54;;;;;;;17.63;13.55;;;;;;;6.26;90.09;102240.25;678622;28;936;-76
2022/03/27 01:44:17;;;;;;;16.88;13.02;;;;;;;6.40;87.46;102220.88;679302;28;1692;-76
2022/03/27 01:44:41;;;;;;;15.82;12.85;;;;;;;6.52;86.03;102209.16;681430;28;1327;-76
2022/03/27 01:45:05;;;;;;;16.77;13.20;;;;;;;6.55;88.36;102214.47;679604;28;1200;-75
2022/03/27 01:45:27;;;;;;;18.05;13.75;;;;;;;6.48;89.79;102224.66;679813;28;1628;-76
2022/03/27 01:45:48;;;;;;;19.13;13.98;;;;;;;6.42;90.68;102211.41;679991;28;1325;-76
2022/03/27 01:46:09;;;;;;;18.70;14.15;;;;;;;6.30;89.17;102221.38;679603;28;4362;-76
2022/03/27 01:46:32;;;;;;;17.83;13.70;;;;;;;6.26;90.78;102212.56;679720;28;1282;-75
2022/03/27 01:46:52;;;;;;;17.92;13.45;;;;;;;6.21;89.73;102229.69;677777;29;1962;-75
2022/03/27 01:47:13;;;;;;;18.88;13.43;;;;;;;6.11;92.58;102236.22;679763;28;1385;-76
2022/03/27 01:47:35;;;;;;;17.95;13.60;;;;;;;6.03;93.73;102210.81;680438;28;1212;-76
2022/03/27 01:47:56;;;;;;;18.80;14.25;;;;;;;6.03;91.47;102211.69;681168;28;1390;-76
2022/03/27 01:48:17;;;;;;;17.83;14.18;;;;;;;6.10;92.02;102221.47;680789;29;904;-75
2022/03/27 01:48:37;;;;;;;17.42;14.15;;;;;;;6.07;93.12;102208.38;681772;28;1215;-76
2022/03/27 01:49:00;;;;;;;17.43;13.80;;;;;;;5.98;94.28;102205.41;679820;28;4470;-76
2022/03/27 01:49:20;;;;;;;19.52;14.50;;;;;;;5.93;94.81;102212.13;684128;28;1601;-76
2022/03/27 01:49:46;;;;;;;18.17;14.00;;;;;;;5.88;93.29;102219.72;681805;28;1220;-76
2022/03/27 01:50:09;;;;;;;17.90;13.55;;;;;;;6.03;90.93;102214.28;678784;28;1795;-76
2022/03/27 01:50:30;;;;;;;17.38;13.02;;;;;;;6.14;88.89;102201.72;681992;28;1362;-76
2022/03/27 01:50:58;;;;;;;17.75;13.55;;;;;;;6.17;91.18;102227.78;681703;28;2007;-75
2022/03/27 01:51:18;;;;;;;18.10;13.70;;;;;;;6.09;92.49;102224.91;682238;28;1058;-75
2022/03/27 01:51:44;;;;;;;19.00;14.17;;;;;;;6.07;91.73;102197.13;679963;28;1391;-78
2022/03/27 01:52:05;;;;;;;18.67;13.82;;;;;;;6.19;89.55;102205.38;677854;28;4365;-76
2022/03/27 01:52:25;;;;;;;17.97;12.93;;;;;;;6.18;91.57;102207.91;678520;29;1526;-76
2022/03/27 01:52:46;;;;;;;18.80;13.83;;;;;;;6.10;92.58;102208.47;676114;29;1579;-76
2022/03/27 01:53:06;;;;;;;18.90;14.20;;;;;;;6.04;92.70;102195.28;676857;29;1446;-75
2022/03/27 01:53:27;;;;;;;18.50;13.90;;;;;;;6.07;90.66;102205.78;676647;28;1387;-75
2022/03/27 01:53:50;;;;;;;16.17;13.18;;;;;;;6.05;93.01;102202.25;677613;29;1404;-75
2022/03/27 01:54:11;;;;;;;17.90;13.55;;;;;;;5.96;93.95;102218.31;679392;28;1749;-77
2022/03/27 01:54:32;;;;;;;19.85;13.93;;;;;;;5.87;95.13;102223.16;681953;28;983;-76
2022/03/27 01:54:53;;;;;;;19.23;14.10;;;;;;;5.87;92.33;102198.88;678205;28;1548;-77
2022/03/27 01:55:16;;;;;;;18.60;13.55;;;;;;;6.02;91.07;102207.31;680920;28;4403;-76
2022/03/27 01:55:36;;;;;;;18.15;13.70;;;;;;;5.91;94.03;102216.34;684506;28;1569;-76
2022/03/27 01:55:57;;;;;;;18.92;14.13;;;;;;;5.83;95.10;102209.97;682746;28;1616;-75
2022/03/27 01:56:17;;;;;;;19.13;14.20;;;;;;;5.76;95.09;102207.16;681747;28;1547;-75
2022/03/27 01:56:38;;;;;;;18.80;14.52;;;;;;;5.76;93.54;102199.38;681669;28;1319;-76
2022/03/27 01:56:59;;;;;;;17.73;14.18;;;;;;;5.85;92.21;102223.91;682490;28;1466;-75